Latest Weather Observations for Tewantin

IDQ60801

Issued at 10:02 pm EST Sunday 21 December 2014 (issued every 30 minutes, with the page automatically refreshed every 10 minutes)

About weather observations | Map of weather stations | Latest weather observations for QLD | Other Formats
Station Details ID: 040908 Name: TEWANTIN RSL PARK Lat: -26.39 Lon: 153.04 Height: 6.4 m
Data from the previous 72 hours. | See also: Recent months at Tewantin
Date/Time
EST
Temp
°C
App
Temp
°C
Dew
Point
Rel
Hum
%
Delta-T
°C
Wind Press
QNH
hPa
Press
MSL
hPa
Rain
since 9 am
mm
Dir
 
Spd
km/h
Gust
km/h
Spd
kts
Gust
kts
21/10:00pm 24.2 25.0 18.2 69 3.8 ESE 11 17 6 9 1018.1 1018.1 0.0
21/09:30pm 24.2 24.6 18.2 69 3.8 ESE 13 17 7 9 1017.9 1017.9 0.0
21/09:00pm 24.3 24.7 18.2 68 3.8 ESE 13 20 7 11 1017.5 1017.5 0.0
21/08:30pm 24.2 24.5 17.9 68 3.9 ESE 13 17 7 9 1017.4 1017.4 0.0
21/08:00pm 24.2 24.6 18.2 69 3.8 E 13 19 7 10 1017.2 1017.2 0.0
21/07:30pm 24.3 24.6 17.8 67 4.1 ESE 13 19 7 10 1016.8 1016.8 0.0
21/07:00pm 24.3 24.2 17.8 67 4.1 E 15 24 8 13 1016.6 1016.6 0.0
21/06:30pm 24.6 25.2 18.5 69 3.9 ESE 13 19 7 10 1016.3 1016.3 0.0
21/06:00pm 24.6 24.6 18.1 67 4.1 ESE 15 24 8 13 1015.8 1015.8 0.0
21/05:30pm 24.9 25.4 18.3 66 4.2 E 13 19 7 10 1015.7 1015.7 0.0
21/05:00pm 25.0 25.4 18.2 66 4.3 E 13 20 7 11 1015.6 1015.6 0.0
21/04:30pm 25.3 25.3 18.2 64 4.5 E 15 22 8 12 1015.3 1015.3 0.0
21/04:00pm 25.6 25.4 17.5 61 5.1 E 15 20 8 11 1015.4 1015.4 0.0
21/03:30pm 25.9 25.9 18.1 62 4.9 E 15 24 8 13 1015.6 1015.6 0.0
21/03:00pm 25.9 25.8 17.8 61 5.1 ESE 15 24 8 13 1015.6 1015.6 0.0
21/02:30pm 26.3 26.3 17.1 57 5.7 E 13 20 7 11 1015.8 1015.8 0.0
21/02:00pm 26.4 26.2 17.5 58 5.6 E 15 24 8 13 1016.0 1016.0 0.0
21/01:30pm 26.9 27.6 17.1 55 6.1 E 9 17 5 9 1016.4 1016.4 0.0
21/01:00pm 26.7 27.8 18.8 62 5.1 ENE 11 19 6 10 1016.6 1016.6 0.0
21/12:30pm 26.5 26.2 17.3 57 5.8 ESE 15 20 8 11 1017.0 1017.0 0.0
21/12:00pm 26.5 27.0 18.4 61 5.1 E 13 20 7 11 1017.3 1017.3 0.0
21/11:30am 26.0 25.6 17.1 58 5.5 ESE 15 24 8 13 1017.6 1017.6 0.0
21/11:00am 26.6 27.2 17.7 58 5.6 ESE 11 19 6 10 1017.8 1017.8 0.0
21/10:30am 26.8 27.2 17.3 56 5.9 E 11 19 6 10 1017.9 1017.9 0.0
21/10:00am 25.5 25.5 17.2 60 5.2 E 13 20 7 11 1018.0 1018.0 0.0
21/09:30am 25.9 26.0 17.5 59 5.3 E 13 20 7 11 1018.1 1018.1 0.0
21/09:00am 25.9 26.0 17.5 59 5.2 ESE 13 20 7 11 1017.9 1017.9 0.0
21/08:30am 25.4 24.6 17.1 60 5.2 E 17 26 9 14 1017.9 1017.9 0.0
21/08:00am 25.5 25.1 17.2 60 5.2 E 15 20 8 11 1017.7 1017.7 0.0
21/07:30am 25.7 25.8 17.4 60 5.2 ESE 13 22 7 12 1017.5 1017.5 0.0
21/07:00am 25.5 25.4 17.9 63 4.8 E 15 20 8 11 1017.1 1017.1 0.0
21/06:30am 25.2 25.5 17.9 64 4.6 ESE 13 19 7 10 1017.0 1017.0 0.0
21/06:00am 23.8 25.3 18.0 70 3.6 E 7 9 4 5 1016.9 1016.9 0.0
21/05:30am 23.8 24.7 17.5 68 3.9 E 9 17 5 9 1016.5 1016.5 0.0
21/05:00am 23.5 24.9 17.7 70 3.6 E 7 13 4 7 1016.1 1016.1 0.0
21/04:30am 23.5 24.5 17.7 70 3.6 E 9 13 5 7 1015.6 1015.6 0.0
21/04:00am 23.6 24.2 17.6 69 3.7 E 11 19 6 10 1015.3 1015.3 0.0
21/03:30am 23.6 24.5 17.6 69 3.7 E 9 15 5 8 1015.4 1015.4 0.0
21/03:00am 23.6 24.7 18.0 71 3.5 E 9 11 5 6 1015.3 1015.3 0.0
21/02:30am 23.7 24.8 18.1 71 3.5 E 9 11 5 6 1015.3 1015.3 0.0
21/02:00am 23.8 24.6 18.2 71 3.5 ESE 11 15 6 8 1015.4 1015.4 0.0
21/01:30am 23.9 25.1 18.3 71 3.5 ESE 9 15 5 8 1015.6 1015.6 0.0
21/01:00am 24.1 24.9 18.1 69 3.8 ESE 11 17 6 9 1015.7 1015.7 0.0
21/12:30am 24.1 25.1 18.7 72 3.4 ESE 11 17 6 9 1015.9 1015.9 0.0
21/12:00am 24.1 24.7 18.5 71 3.5 ESE 13 17 7 9 1016.3 1016.3 0.0
 
Date/Time
EST
Temp
°C
App
Temp
°C
Dew
Point
Rel
Hum
%
Delta-T
°C
Wind Press
QNH
hPa
Press
MSL
hPa
Rain
since 9 am
mm
Dir
 
Spd
km/h
Gust
km/h
Spd
kts
Gust
kts
20/11:30pm 24.3 25.7 19.6 75 3.0 ESE 11 17 6 9 1016.5 1016.5 0.0
20/11:00pm 24.4 25.2 19.0 72 3.4 ESE 13 17 7 9 1016.7 1016.7 0.0
20/10:30pm 24.5 25.3 19.1 72 3.4 ESE 13 20 7 11 1016.7 1016.7 0.0
20/10:00pm 24.5 25.6 19.6 74 3.1 E 13 22 7 12 1016.6 1016.6 0.0
20/09:30pm 24.5 25.2 19.6 74 3.2 ESE 15 24 8 13 1016.5 1016.5 0.0
20/09:00pm 24.6 25.9 20.1 76 2.9 E 13 19 7 10 1016.4 1016.4 0.0
20/08:30pm 24.6 25.8 19.9 75 3.0 E 13 17 7 9 1015.8 1015.8 0.0
20/08:00pm 24.8 25.7 20.1 75 3.0 ESE 15 20 8 11 1015.8 1015.8 0.0
20/07:30pm 24.8 26.1 20.1 75 3.0 ESE 13 20 7 11 1015.3 1015.3 0.0
20/07:00pm 24.9 25.3 19.9 74 3.2 ESE 17 24 9 13 1014.6 1014.6 0.0
20/06:30pm 24.9 25.3 19.9 74 3.2 ESE 17 26 9 14 1014.4 1014.4 0.0
20/06:00pm 25.1 26.2 20.4 75 3.1 ESE 15 24 8 13 1014.1 1014.1 0.0
20/05:30pm 25.2 25.8 20.2 74 3.3 ESE 17 26 9 14 1013.9 1013.9 0.0
20/05:00pm 25.2 25.4 20.2 74 3.3 ESE 19 30 10 16 1013.6 1013.6 0.0
20/04:30pm 25.3 25.8 20.1 73 3.4 ESE 17 24 9 13 1013.3 1013.3 0.0
20/04:00pm 25.5 26.2 20.5 74 3.3 ESE 17 24 9 13 1013.2 1013.2 0.0
20/03:30pm 26.1 26.5 20.7 72 3.5 ESE 19 28 10 15 1012.9 1012.9 0.0
20/03:00pm 25.9 26.1 20.2 71 3.7 ESE 19 28 10 15 1013.3 1013.3 0.0
20/02:30pm 25.8 26.6 20.6 73 3.4 ESE 17 24 9 13 1013.6 1013.6 0.0
20/02:00pm 26.3 27.4 20.4 70 3.9 ESE 15 20 8 11 1013.8 1013.8 0.0
20/01:30pm 26.6 27.8 20.0 67 4.3 ESE 13 24 7 13 1014.1 1014.1 0.0
20/01:00pm 26.2 26.8 20.3 70 3.9 ESE 17 28 9 15 1014.3 1014.3 0.0
20/12:30pm 26.0 26.7 19.6 68 4.1 ESE 15 28 8 15 1014.5 1014.5 0.0
20/12:00pm 26.4 27.0 19.5 66 4.5 ESE 15 24 8 13 1014.7 1014.7 0.0
20/11:30am 26.5 26.9 19.1 64 4.8 ESE 15 24 8 13 1015.1 1015.1 0.0
20/11:00am 27.4 28.5 20.5 66 4.5 E 15 24 8 13 1015.4 1015.4 0.0
20/10:30am 26.6 26.9 19.5 65 4.6 ESE 17 24 9 13 1015.6 1015.6 0.0
20/10:00am 26.3 27.8 20.6 71 3.7 ESE 13 20 7 11 1015.6 1015.6 0.0
20/09:30am 26.7 28.0 20.8 70 3.9 ESE 15 24 8 13 1015.6 1015.6 0.0
20/09:00am 25.9 26.2 19.5 68 4.1 SE 17 26 9 14 1015.6 1015.6 0.2
20/08:30am 26.3 27.0 19.7 67 4.3 SE 15 24 8 13 1015.5 1015.5 0.2
20/08:00am 26.0 26.9 20.1 70 3.8 SE 15 22 8 12 1015.3 1015.3 0.2
20/07:30am 25.6 27.5 21.3 77 2.8 S 13 19 7 10 1015.0 1015.0 0.2
20/07:00am 24.3 25.5 20.6 80 2.4 S 15 20 8 11 1014.7 1014.7 0.2
20/06:30am 23.5 25.1 20.8 85 1.8 S 13 19 7 10 1014.5 1014.5 0.2
20/06:00am 23.0 25.1 20.9 88 1.4 S 11 17 6 9 1014.1 1014.1 0.2
20/05:30am 22.3 24.7 20.8 91 1.0 S 9 13 5 7 1013.7 1013.7 0.2
20/05:00am 22.3 24.6 20.6 90 1.1 SSW 9 13 5 7 1013.5 1013.5 0.2
20/04:30am 22.4 24.4 20.7 90 1.1 S 11 17 6 9 1013.1 1013.1 0.2
20/04:00am 22.5 24.6 21.0 91 1.0 S 11 15 6 8 1012.8 1012.8 0.2
20/03:30am 22.4 24.6 21.2 93 0.8 S 11 17 6 9 1012.6 1012.6 0.2
20/03:00am 22.5 24.8 21.3 93 0.8 S 11 15 6 8 1012.6 1012.6 0.2
20/02:30am 22.8 25.8 22.0 95 0.5 S 9 15 5 8 1012.6 1012.6 0.2
20/02:00am 22.9 25.9 22.6 98 0.2 S 11 17 6 9 1012.6 1012.6 0.2
20/01:30am 22.4 25.5 22.2 99 0.1 SSW 9 13 5 7 1012.7 1012.7 0.2
20/01:00am 22.1 24.6 21.8 98 0.2 S 11 13 6 7 1012.6 1012.6 0.2
20/12:30am 22.3 25.2 21.8 97 0.3 S 9 15 5 8 1012.7 1012.7 0.2
20/12:00am 22.5 25.9 22.0 97 0.3 S 7 11 4 6 1012.9 1012.9 0.2
 
Date/Time
EST
Temp
°C
App
Temp
°C
Dew
Point
Rel
Hum
%
Delta-T
°C
Wind Press
QNH
hPa
Press
MSL
hPa
Rain
since 9 am
mm
Dir
 
Spd
km/h
Gust
km/h
Spd
kts
Gust
kts
19/11:30pm 23.0 27.5 22.2 95 0.5 SSW 2 6 1 3 1013.0 1013.0 0.2
19/11:00pm 23.5 27.7 22.5 94 0.7 SW 4 7 2 4 1013.1 1013.1 0.2
19/10:30pm 23.5 28.2 22.7 95 0.5 ENE 2 7 1 4 1013.0 1013.0 0.2
19/10:00pm 23.5 27.0 22.1 92 0.9 NW 7 19 4 10 1012.5 1012.5 0.2
19/09:30pm 23.8 29.0 22.8 94 0.7 CALM 0 0 0 0 1012.2 1012.2 0.2
19/09:00pm 24.2 28.3 23.2 94 0.7 N 7 11 4 6 1011.9 1011.9 0.2
19/08:30pm 24.2 29.3 22.6 91 1.1 CALM 0 0 0 0 1011.4 1011.4 0.2
19/08:00pm 24.7 28.7 22.8 89 1.3 N 6 9 3 5 1011.3 1011.3 0.2
19/07:30pm 25.0 28.9 22.9 88 1.4 N 7 11 4 6 1011.1 1011.1 0.2
19/07:00pm 25.1 28.9 22.4 85 1.8 N 6 11 3 6 1010.8 1010.8 0.2
19/06:30pm 25.4 28.7 22.5 84 2.0 NNE 9 15 5 8 1010.6 1010.6 0.2
19/06:00pm 25.9 29.1 22.4 81 2.4 NNE 9 17 5 9 1010.3 1010.3 0.2
19/05:30pm 26.6 28.7 22.4 78 2.8 NNE 15 22 8 12 1009.7 1009.7 0.2
19/05:00pm 26.9 28.7 21.9 74 3.4 NNE 15 20 8 11 1009.5 1009.5 0.2
19/04:30pm 27.3 29.7 22.3 74 3.4 NE 13 20 7 11 1009.2 1009.2 0.2
19/04:00pm 27.2 28.9 22.4 75 3.2 NNE 17 24 9 13 1009.1 1009.1 0.2
19/03:30pm 27.6 28.8 21.4 69 4.1 NNE 17 22 9 12 1009.0 1009.0 0.2
19/03:00pm 28.5 31.0 23.2 73 3.6 NNE 15 19 8 10 1009.3 1009.3 0.2
19/02:30pm 27.9 30.2 22.8 74 3.5 NNE 15 20 8 11 1009.5 1009.5 0.2
19/02:00pm 28.3 31.1 23.7 76 3.2 NNE 15 20 8 11 1009.8 1009.8 0.2
19/01:30pm 29.2 32.9 23.2 70 4.1 NE 9 19 5 10 1010.1 1010.1 0.2
19/01:00pm 28.9 31.9 21.9 66 4.7 NNE 9 17 5 9 1010.4 1010.4 0.2
19/12:30pm 28.5 31.1 20.5 62 5.3 NNE 7 9 4 5 1010.8 1010.8 0.2
19/12:00pm 27.9 31.1 21.2 67 4.5 N 6 11 3 6 1011.0 1011.0 0.2
19/11:30am 27.1 29.6 19.9 64 4.7 NNE 6 9 3 5 1011.4 1011.4 0.2
19/11:00am 26.3 28.5 20.4 70 3.9 NW 9 15 5 8 1011.8 1011.8 0.2
19/10:30am 25.5 28.3 20.5 74 3.3 NW 6 13 3 7 1012.2 1012.2 0.2
19/10:00am 23.7 25.9 20.4 82 2.1 NW 9 15 5 8 1012.3 1012.3 0.0
19/09:30am 22.8 25.5 21.3 91 1.0 NNW 9 13 5 7 1012.5 1012.5 0.0
19/09:00am 22.0 24.6 21.2 95 0.5 NW 9 13 5 7 1012.7 1012.7 23.0
19/08:30am 21.3 24.3 20.8 97 0.3 NW 6 9 3 5 1012.7 1012.7 23.0
19/08:00am 21.1 24.0 20.6 97 0.3 NW 6 7 3 4 1012.3 1012.3 22.8
19/07:30am 21.1 24.5 20.9 99 0.1 W 4 7 2 4 1012.6 1012.6 22.8
19/07:00am 21.1 24.1 20.9 99 0.1 NW 6 9 3 5 1012.5 1012.5 22.6
19/06:30am 21.1 24.9 20.9 99 0.1 NW 2 7 1 4 1012.5 1012.5 22.4
19/06:00am 21.0 24.7 20.8 99 0.1 WNW 2 6 1 3 1012.5 1012.5 22.0
19/05:30am 20.9 25.0 20.7 99 0.1 CALM 0 0 0 0 1012.1 1012.1 21.4
19/05:00am 20.8 24.8 20.6 99 0.1 CALM 0 0 0 0 1011.8 1011.8 21.4
19/04:30am 20.7 24.7 20.5 99 0.1 CALM 0 0 0 0 1011.6 1011.6 21.2
19/04:00am 20.8 24.8 20.6 99 0.1 CALM 0 0 0 0 1011.8 1011.8 20.6
19/03:30am 20.8 24.4 20.6 99 0.1 SW 2 7 1 4 1011.8 1011.8 20.0
19/03:00am 20.8 24.0 20.6 99 0.1 SSW 4 7 2 4 1012.0 1012.0 19.4
19/02:30am 20.9 23.2 20.6 98 0.2 SSW 9 13 5 7 1011.8 1011.8 17.4
19/02:00am 21.2 23.9 20.7 97 0.3 SSW 7 15 4 8 1011.6 1011.6 16.0
19/01:30am 21.9 23.8 21.4 97 0.3 SSW 13 19 7 10 1011.8 1011.8 13.6
19/01:00am 22.6 26.4 22.4 99 0.1 SW 6 13 3 7 1012.5 1012.5 12.0
19/12:30am 22.7 26.6 22.5 99 0.1 WSW 6 11 3 6 1012.8 1012.8 11.2
19/12:00am 22.9 26.8 22.9 100 0.0 WNW 7 13 4 7 1013.0 1013.0 8.2
 
Date/Time
EST
Temp
°C
App
Temp
°C
Dew
Point
Rel
Hum
%
Delta-T
°C
Wind Press
QNH
hPa
Press
MSL
hPa
Rain
since 9 am
mm
Dir
 
Spd
km/h
Gust
km/h
Spd
kts
Gust
kts
18/11:30pm 22.9 27.0 22.9 100 0.0 NNW 6 9 3 5 1012.5 1012.5 7.0
18/11:00pm 23.1 27.3 23.1 100 0.0 NW 6 13 3 7 1012.5 1012.5 6.2
18/10:30pm 23.1 26.6 22.9 99 0.1 WNW 9 13 5 7 1013.0 1013.0 4.6

Other Formats:

Comma delimited format used in spreadsheet applications
http://www.bom.gov.au/fwo/IDQ60801/IDQ60801.94570.axf

JavaScript Object Notation format (JSON) in row-major order
http://www.bom.gov.au/fwo/IDQ60801/IDQ60801.94570.json